createdAt,value
2023-05-18T00:00:30.303Z,43.28
2023-05-18T00:01:30.388Z,43.13
2023-05-18T00:02:30.517Z,43.34
2023-05-18T00:03:30.613Z,43.22
2023-05-18T00:04:30.574Z,43.23
2023-05-18T00:05:30.781Z,43.35
2023-05-18T00:06:30.646Z,43.27
2023-05-18T00:07:30.753Z,43.25
2023-05-18T00:08:30.799Z,43.37
2023-05-18T00:09:30.847Z,43.34
2023-05-18T00:10:30.998Z,43.22
2023-05-18T00:11:31.004Z,43.44
2023-05-18T00:12:31.056Z,43.39
2023-05-18T00:13:31.141Z,43.28
2023-05-18T00:14:31.217Z,43.61
2023-05-18T00:15:31.465Z,43.93
2023-05-18T00:16:31.357Z,43.74
2023-05-18T00:17:31.398Z,43.43
2023-05-18T00:18:31.414Z,43.60
2023-05-18T00:19:31.568Z,43.38
2023-05-18T00:20:31.586Z,43.35
2023-05-18T00:21:31.630Z,43.34
2023-05-18T00:22:31.697Z,43.50
2023-05-18T00:23:31.745Z,43.37
2023-05-18T00:24:31.802Z,43.42
2023-05-18T00:25:31.977Z,43.29
2023-05-18T00:26:31.928Z,43.19
2023-05-18T00:27:31.983Z,43.32
2023-05-18T00:28:32.080Z,43.39
2023-05-18T00:29:32.111Z,43.42
2023-05-18T00:30:32.196Z,43.31
2023-05-18T00:31:32.259Z,43.34
2023-05-18T00:32:32.333Z,43.43
2023-05-18T00:33:32.418Z,43.39
2023-05-18T00:34:32.452Z,43.52
2023-05-18T00:35:32.660Z,43.26
2023-05-18T00:36:32.702Z,43.32
2023-05-18T00:37:32.696Z,43.62
2023-05-18T00:38:32.697Z,43.56
2023-05-18T00:39:32.776Z,43.43
2023-05-18T00:40:32.831Z,43.39
2023-05-18T00:41:32.916Z,43.42
2023-05-18T00:42:32.983Z,43.30
2023-05-18T00:43:33.049Z,43.19
2023-05-18T00:44:33.103Z,43.19
2023-05-18T00:45:33.435Z,43.32
2023-05-18T00:46:33.404Z,43.19
2023-05-18T00:47:33.373Z,43.16
2023-05-18T00:48:33.389Z,43.21
2023-05-18T00:49:33.439Z,43.21
2023-05-18T00:50:33.512Z,43.32
2023-05-18T00:51:33.585Z,43.35
2023-05-18T00:52:33.683Z,43.48
2023-05-18T00:53:33.714Z,43.14
2023-05-18T00:54:33.780Z,43.35
2023-05-18T00:55:34.013Z,43.33
2023-05-18T00:56:33.928Z,43.26
2023-05-18T00:57:33.972Z,43.31
2023-05-18T00:58:34.043Z,43.19
2023-05-18T00:59:34.095Z,43.12
2023-05-18T01:00:34.219Z,43.10
2023-05-18T01:01:34.400Z,43.44
2023-05-18T01:02:34.402Z,43.36
2023-05-18T01:03:34.489Z,43.24
2023-05-18T01:04:34.470Z,43.14
2023-05-18T01:05:34.513Z,43.17
2023-05-18T01:06:34.615Z,43.23
2023-05-18T01:07:34.700Z,43.39
2023-05-18T01:08:34.751Z,43.43
2023-05-18T01:09:34.798Z,43.55
2023-05-18T01:10:34.860Z,43.22
2023-05-18T01:11:34.929Z,43.11
2023-05-18T01:12:34.981Z,43.29
2023-05-18T01:13:35.056Z,43.23
2023-05-18T01:14:35.092Z,43.14
2023-05-18T01:15:35.161Z,43.13
2023-05-18T01:16:35.254Z,43.10
2023-05-18T01:17:35.325Z,43.06
2023-05-18T01:18:35.345Z,43.42
2023-05-18T01:19:35.397Z,43.34
2023-05-18T01:20:35.457Z,43.27
2023-05-18T01:21:35.521Z,43.21
2023-05-18T01:22:35.541Z,43.07
2023-05-18T01:23:35.637Z,43.10
2023-05-18T01:24:35.690Z,43.09
2023-05-18T01:25:35.755Z,43.21
2023-05-18T01:26:35.787Z,43.14
2023-05-18T01:27:35.870Z,43.29
2023-05-18T01:28:35.924Z,43.40
2023-05-18T01:29:35.974Z,43.24
2023-05-18T01:30:36.080Z,43.24
2023-05-18T01:31:36.217Z,43.13
2023-05-18T01:32:36.206Z,43.07
2023-05-18T01:33:36.225Z,43.05
2023-05-18T01:34:36.282Z,43.24
2023-05-18T01:35:36.309Z,43.46
2023-05-18T01:36:36.391Z,43.43
2023-05-18T01:37:36.453Z,43.19
2023-05-18T01:38:36.494Z,43.04
2023-05-18T01:39:36.570Z,43.09
2023-05-18T01:40:36.594Z,43.33
2023-05-18T01:41:36.659Z,43.35
2023-05-18T01:42:36.715Z,43.21
2023-05-18T01:43:36.809Z,42.99
2023-05-18T01:44:36.880Z,43.19
2023-05-18T01:45:36.907Z,43.13
2023-05-18T01:46:37.031Z,43.06
2023-05-18T01:47:37.073Z,43.13
2023-05-18T01:48:37.083Z,43.24
2023-05-18T01:49:37.163Z,43.40
2023-05-18T01:50:37.203Z,43.08
2023-05-18T01:51:37.299Z,43.16
2023-05-18T01:52:37.333Z,43.15
2023-05-18T01:53:37.386Z,43.09
2023-05-18T01:54:37.470Z,43.22
2023-05-18T01:55:37.529Z,43.15
2023-05-18T01:56:37.593Z,42.98
2023-05-18T01:57:37.656Z,43.22
2023-05-18T01:58:37.704Z,43.14
2023-05-18T01:59:37.778Z,42.98
2023-05-18T02:00:37.825Z,43.03
2023-05-18T02:01:37.933Z,43.01
2023-05-18T02:02:38.040Z,42.98
2023-05-18T02:03:38.084Z,42.97
2023-05-18T02:04:38.092Z,43.08
2023-05-18T02:05:38.150Z,43.06
2023-05-18T02:06:38.207Z,43.03
2023-05-18T02:07:38.265Z,43.16
2023-05-18T02:08:38.349Z,42.99
2023-05-18T02:09:38.404Z,43.07
2023-05-18T02:10:38.446Z,43.21
2023-05-18T02:11:38.520Z,43.28
2023-05-18T02:12:38.556Z,43.32
2023-05-18T02:13:38.630Z,43.10
2023-05-18T02:14:38.716Z,43.13
2023-05-18T02:15:38.738Z,43.07
2023-05-18T02:16:38.907Z,43.03
2023-05-18T02:17:38.904Z,43.02
2023-05-18T02:18:38.954Z,43.17
2023-05-18T02:19:38.960Z,43.41
2023-05-18T02:20:39.043Z,43.08
2023-05-18T02:21:39.081Z,43.16
2023-05-18T02:22:39.144Z,43.41
2023-05-18T02:23:39.224Z,43.29
2023-05-18T02:24:39.310Z,43.33
2023-05-18T02:25:39.370Z,43.27
2023-05-18T02:26:39.426Z,43.30
2023-05-18T02:27:39.477Z,43.44
2023-05-18T02:28:39.559Z,43.22
2023-05-18T02:29:39.687Z,43.17
2023-05-18T02:30:39.698Z,43.13
2023-05-18T02:31:39.791Z,43.13
2023-05-18T02:32:39.814Z,43.06
2023-05-18T02:33:39.950Z,43.25
2023-05-18T02:34:39.920Z,43.20
2023-05-18T02:35:40.002Z,43.19
2023-05-18T02:36:40.376Z,43.00
2023-05-18T02:37:40.370Z,43.01
2023-05-18T02:38:40.185Z,43.05
2023-05-18T02:39:40.264Z,43.23
2023-05-18T02:40:40.335Z,43.22
2023-05-18T02:41:40.388Z,43.26
2023-05-18T02:42:40.485Z,43.18
2023-05-18T02:43:40.524Z,43.26
2023-05-18T02:44:40.627Z,43.16
2023-05-18T02:45:40.655Z,43.01
2023-05-18T02:46:40.736Z,43.22
2023-05-18T02:47:40.840Z,43.32
2023-05-18T02:48:40.843Z,43.19
2023-05-18T02:49:40.980Z,43.33
2023-05-18T02:50:40.997Z,43.07
2023-05-18T02:51:41.058Z,43.33
2023-05-18T02:52:41.135Z,43.13
2023-05-18T02:53:41.172Z,43.23
2023-05-18T02:54:41.290Z,42.96
2023-05-18T02:55:41.343Z,43.18
2023-05-18T02:56:41.407Z,43.25
2023-05-18T02:57:41.447Z,43.31
2023-05-18T02:58:41.532Z,43.08
2023-05-18T02:59:41.598Z,43.34
2023-05-18T03:00:41.669Z,43.41
2023-05-18T03:01:41.851Z,43.35
2023-05-18T03:02:41.863Z,43.16
2023-05-18T03:03:41.942Z,43.06
2023-05-18T03:04:41.959Z,43.25
2023-05-18T03:05:42.021Z,43.26
2023-05-18T03:06:42.083Z,43.31
2023-05-18T03:07:42.166Z,43.45
2023-05-18T03:08:42.240Z,43.23
2023-05-18T03:09:42.284Z,43.35
2023-05-18T03:10:42.375Z,43.19
2023-05-18T03:11:42.443Z,43.11
2023-05-18T03:12:42.502Z,42.99
2023-05-18T03:13:42.573Z,43.07
2023-05-18T03:14:42.673Z,43.03
2023-05-18T03:15:42.732Z,43.23
2023-05-18T03:16:42.810Z,43.11
2023-05-18T03:17:42.947Z,43.25
2023-05-18T03:18:42.969Z,43.10
2023-05-18T03:19:43.022Z,43.16
2023-05-18T03:20:43.065Z,43.29
2023-05-18T03:21:43.185Z,43.16
2023-05-18T03:22:43.240Z,43.04
2023-05-18T03:23:43.303Z,42.93
2023-05-18T03:24:43.369Z,43.01
2023-05-18T03:25:43.486Z,43.02
2023-05-18T03:26:43.515Z,42.99
2023-05-18T03:27:43.581Z,42.92
2023-05-18T03:28:43.749Z,42.86
2023-05-18T03:29:43.769Z,42.95
2023-05-18T03:30:43.774Z,42.95
2023-05-18T03:31:43.971Z,43.00
2023-05-18T03:32:43.982Z,42.95
2023-05-18T03:33:43.983Z,43.11
2023-05-18T03:34:44.083Z,43.06
2023-05-18T03:35:44.752Z,43.09
2023-05-18T03:36:44.204Z,42.93
2023-05-18T03:37:44.277Z,42.88
2023-05-18T03:38:44.361Z,43.19
2023-05-18T03:39:44.391Z,43.06
2023-05-18T03:40:44.459Z,43.20
2023-05-18T03:41:44.565Z,43.29
2023-05-18T03:42:44.589Z,43.07
2023-05-18T03:43:44.654Z,42.90
2023-05-18T03:44:45.135Z,42.88
2023-05-18T03:45:44.829Z,42.84
2023-05-18T03:46:44.958Z,42.81
2023-05-18T03:47:44.980Z,43.14
2023-05-18T03:48:45.019Z,42.98
2023-05-18T03:49:45.096Z,43.01
2023-05-18T03:50:45.168Z,43.23
2023-05-18T03:51:45.243Z,43.18
2023-05-18T03:52:45.322Z,43.35
2023-05-18T03:53:45.397Z,43.28
2023-05-18T03:54:45.453Z,43.31
2023-05-18T03:55:45.543Z,43.20
2023-05-18T03:56:45.594Z,43.09
2023-05-18T03:57:45.676Z,43.07
2023-05-18T03:58:45.769Z,43.14
2023-05-18T03:59:45.829Z,43.13
2023-05-18T04:00:45.902Z,43.45
2023-05-18T04:01:46.018Z,43.23
2023-05-18T04:02:46.054Z,43.14
2023-05-18T04:03:46.195Z,43.21
2023-05-18T04:04:46.148Z,43.26
2023-05-18T04:05:46.253Z,43.15
2023-05-18T04:06:46.318Z,42.92
2023-05-18T04:07:46.409Z,42.93
2023-05-18T04:08:46.463Z,43.00
2023-05-18T04:09:46.551Z,43.18
2023-05-18T04:10:46.616Z,43.16
2023-05-18T04:11:46.650Z,42.98
2023-05-18T04:12:46.758Z,42.94
2023-05-18T04:13:46.828Z,42.99
2023-05-18T04:14:46.918Z,42.95
2023-05-18T04:15:46.952Z,42.97
2023-05-18T04:16:47.237Z,43.26
2023-05-18T04:17:47.105Z,43.28
2023-05-18T04:18:47.251Z,42.86
2023-05-18T04:19:47.255Z,42.92
2023-05-18T04:20:47.285Z,43.15
2023-05-18T04:21:47.361Z,43.25
2023-05-18T04:22:47.443Z,42.99
2023-05-18T04:23:47.545Z,43.01
2023-05-18T04:24:47.792Z,43.29
2023-05-18T04:25:47.638Z,43.08
2023-05-18T04:26:47.730Z,43.24
2023-05-18T04:27:50.530Z,42.99
2023-05-18T04:28:47.826Z,43.27
2023-05-18T04:29:47.838Z,43.20
2023-05-18T04:30:47.846Z,43.27
2023-05-18T04:31:47.930Z,43.00
2023-05-18T04:32:47.897Z,43.22
2023-05-18T04:33:47.872Z,43.22
2023-05-18T04:34:47.857Z,43.02
2023-05-18T04:35:47.862Z,42.96
2023-05-18T04:36:47.854Z,42.98
2023-05-18T04:37:47.834Z,43.03
2023-05-18T04:38:47.843Z,43.18
2023-05-18T04:39:47.881Z,43.24
2023-05-18T04:40:47.866Z,43.02
2023-05-18T04:41:47.875Z,43.12
2023-05-18T04:42:48.638Z,43.00
2023-05-18T04:43:47.876Z,42.87
2023-05-18T04:44:47.859Z,42.90
2023-05-18T04:45:47.930Z,42.84
2023-05-18T04:46:47.886Z,43.34
2023-05-18T04:47:47.909Z,43.35
2023-05-18T04:48:47.876Z,43.17
2023-05-18T04:49:47.926Z,43.01
2023-05-18T04:50:47.883Z,43.05
2023-05-18T04:51:47.880Z,43.32
2023-05-18T04:52:47.890Z,42.99
2023-05-18T04:53:47.928Z,43.82
2023-05-18T04:54:47.913Z,44.01
2023-05-18T04:55:47.909Z,44.07
2023-05-18T04:56:47.888Z,44.16
2023-05-18T04:57:47.965Z,44.24
2023-05-18T04:58:48.035Z,44.33
2023-05-18T04:59:48.141Z,44.45
2023-05-18T05:00:48.148Z,44.54
2023-05-18T05:01:48.340Z,44.60
2023-05-18T05:02:48.413Z,44.63
2023-05-18T05:03:48.427Z,44.67
2023-05-18T05:04:48.489Z,44.70
2023-05-18T05:05:48.548Z,44.73
2023-05-18T05:06:48.594Z,44.77
2023-05-18T05:07:48.640Z,44.82
2023-05-18T05:08:48.713Z,44.84
2023-05-18T05:09:48.775Z,44.87
2023-05-18T05:10:48.824Z,44.87
2023-05-18T05:11:48.901Z,44.91
2023-05-18T05:12:49.602Z,44.94
2023-05-18T05:13:49.060Z,44.93
2023-05-18T05:14:49.122Z,44.96
2023-05-18T05:15:49.211Z,44.96
2023-05-18T05:16:49.233Z,44.96
2023-05-18T05:17:49.407Z,44.97
2023-05-18T05:18:49.429Z,44.94
2023-05-18T05:19:49.479Z,44.92
2023-05-18T05:20:49.517Z,44.92
2023-05-18T05:21:49.561Z,44.92
2023-05-18T05:22:49.809Z,44.90
2023-05-18T05:23:49.679Z,44.93
2023-05-18T05:24:49.684Z,44.93
2023-05-18T05:25:49.743Z,44.99
2023-05-18T05:26:49.773Z,45.08
2023-05-18T05:27:49.789Z,45.14
2023-05-18T05:28:49.905Z,45.26
2023-05-18T05:29:49.919Z,45.27
2023-05-18T05:30:50.004Z,45.32
2023-05-18T05:31:50.065Z,45.46
2023-05-18T05:32:50.147Z,45.56
2023-05-18T05:33:50.102Z,45.62
2023-05-18T05:34:50.128Z,45.66
2023-05-18T05:35:50.146Z,45.72
2023-05-18T05:36:50.224Z,45.78
2023-05-18T05:37:50.207Z,45.82
2023-05-18T05:38:50.204Z,45.87
2023-05-18T05:39:50.210Z,45.93
2023-05-18T05:40:50.235Z,45.98
2023-05-18T05:41:50.208Z,46.01
2023-05-18T05:42:50.267Z,46.07
2023-05-18T05:43:50.224Z,46.12
2023-05-18T05:44:50.276Z,46.11
2023-05-18T05:45:50.298Z,46.13
2023-05-18T05:46:50.305Z,46.16
2023-05-18T05:47:50.381Z,46.17
2023-05-18T05:48:50.305Z,46.10
2023-05-18T05:49:50.316Z,46.07
2023-05-18T05:50:50.334Z,46.10
2023-05-18T05:51:50.360Z,46.18
2023-05-18T05:52:50.374Z,46.16
2023-05-18T05:53:50.373Z,46.22
2023-05-18T05:54:50.390Z,46.28
2023-05-18T05:55:50.384Z,46.31
2023-05-18T05:56:50.408Z,46.34
2023-05-18T05:57:50.401Z,46.33
2023-05-18T05:58:50.430Z,46.38
2023-05-18T05:59:50.492Z,46.33
2023-05-18T06:00:50.490Z,46.37
2023-05-18T06:01:50.501Z,46.38
2023-05-18T06:02:50.547Z,46.33
2023-05-18T06:03:50.540Z,46.37
2023-05-18T06:04:50.523Z,46.34
2023-05-18T06:05:50.537Z,46.43
2023-05-18T06:06:50.534Z,46.42
2023-05-18T06:07:50.557Z,46.47
2023-05-18T06:08:50.580Z,46.46
2023-05-18T06:09:50.552Z,46.37
2023-05-18T06:10:50.572Z,46.42
2023-05-18T06:11:50.563Z,46.39
2023-05-18T06:12:50.607Z,46.42
2023-05-18T06:13:50.630Z,46.47
2023-05-18T06:14:50.679Z,46.48
2023-05-18T06:15:50.652Z,46.45
2023-05-18T06:16:50.795Z,46.41
2023-05-18T06:17:50.738Z,46.21
2023-05-18T06:18:50.688Z,46.28
2023-05-18T06:19:50.689Z,46.21
2023-05-18T06:20:50.750Z,46.18
2023-05-18T06:21:50.779Z,45.95
2023-05-18T06:22:50.779Z,46.04
2023-05-18T06:23:50.803Z,45.97
2023-05-18T06:24:50.855Z,45.91
2023-05-18T06:25:50.842Z,45.88
2023-05-18T06:26:50.917Z,45.81
2023-05-18T06:27:50.912Z,45.81
2023-05-18T06:28:50.953Z,45.72
2023-05-18T06:29:50.945Z,45.77
2023-05-18T06:30:51.000Z,45.69
2023-05-18T06:31:51.065Z,45.57
2023-05-18T06:32:51.096Z,45.64
2023-05-18T06:33:51.120Z,45.59
2023-05-18T06:34:51.155Z,45.44
2023-05-18T06:35:51.162Z,45.52
2023-05-18T06:36:51.254Z,45.45
2023-05-18T06:37:51.261Z,45.66
2023-05-18T06:38:51.299Z,45.75
2023-05-18T06:39:51.292Z,45.78
2023-05-18T06:40:51.308Z,45.82
2023-05-18T06:41:51.393Z,45.87
2023-05-18T06:42:51.448Z,45.88
2023-05-18T06:43:51.471Z,45.95
2023-05-18T06:44:51.501Z,45.99
2023-05-18T06:45:51.584Z,46.06
2023-05-18T06:46:51.619Z,46.18
2023-05-18T06:47:51.624Z,46.28
2023-05-18T06:48:51.590Z,46.33
2023-05-18T06:49:51.666Z,46.44
2023-05-18T06:50:51.636Z,46.50
2023-05-18T06:51:51.719Z,46.58
2023-05-18T06:52:51.693Z,46.56
2023-05-18T06:53:51.709Z,46.67
2023-05-18T06:54:51.701Z,46.68
2023-05-18T06:55:51.736Z,46.72
2023-05-18T06:56:51.729Z,46.80
2023-05-18T06:57:51.777Z,46.82
2023-05-18T06:58:51.820Z,46.87
2023-05-18T06:59:51.828Z,46.72
2023-05-18T07:00:51.893Z,46.70
2023-05-18T07:01:51.888Z,46.79
2023-05-18T07:02:51.947Z,46.84
2023-05-18T07:03:52.001Z,46.93
2023-05-18T07:04:51.952Z,46.91
2023-05-18T07:05:51.968Z,46.94
2023-05-18T07:06:51.996Z,46.95
2023-05-18T07:07:52.122Z,46.95
2023-05-18T07:08:52.038Z,46.98
2023-05-18T07:09:52.091Z,46.86
2023-05-18T07:10:52.090Z,46.85
2023-05-18T07:11:52.122Z,46.78
2023-05-18T07:12:52.144Z,46.65
2023-05-18T07:13:52.380Z,46.48
2023-05-18T07:14:52.124Z,46.50
2023-05-18T07:15:52.186Z,46.50
2023-05-18T07:16:52.161Z,46.50
2023-05-18T07:17:52.271Z,46.49
2023-05-18T07:18:52.210Z,46.55
2023-05-18T07:19:52.205Z,46.52
2023-05-18T07:20:52.210Z,46.43
2023-05-18T07:21:52.273Z,46.43
2023-05-18T07:22:52.234Z,46.40
2023-05-18T07:23:52.240Z,46.34
2023-05-18T07:24:52.275Z,46.30
2023-05-18T07:25:52.311Z,46.26
2023-05-18T07:26:52.292Z,46.17
2023-05-18T07:27:52.312Z,46.00
2023-05-18T07:28:52.282Z,46.02
2023-05-18T07:29:52.324Z,46.07
2023-05-18T07:30:52.476Z,45.90
2023-05-18T07:31:52.368Z,46.09
2023-05-18T07:32:52.529Z,46.06
2023-05-18T07:33:52.477Z,46.03
2023-05-18T07:34:52.431Z,46.16
2023-05-18T07:35:52.512Z,46.25
2023-05-18T07:36:52.473Z,46.23
2023-05-18T07:37:52.454Z,46.34
2023-05-18T07:38:52.477Z,46.25
2023-05-18T07:39:52.494Z,46.41
2023-05-18T07:40:52.458Z,46.54
2023-05-18T07:41:52.521Z,46.70
2023-05-18T07:42:52.493Z,46.73
2023-05-18T07:43:52.613Z,46.76
2023-05-18T07:44:52.580Z,46.83
2023-05-18T07:45:52.627Z,46.83
2023-05-18T07:46:52.815Z,46.93
2023-05-18T07:47:52.765Z,46.96
2023-05-18T07:48:52.604Z,46.99
2023-05-18T07:49:52.599Z,46.99
2023-05-18T07:50:52.640Z,46.97
2023-05-18T07:51:52.679Z,47.04
2023-05-18T07:52:52.673Z,47.14
2023-05-18T07:53:52.690Z,47.08
2023-05-18T07:54:52.686Z,47.14
2023-05-18T07:55:52.684Z,47.19
2023-05-18T07:56:52.737Z,47.17
2023-05-18T07:57:52.777Z,47.20
2023-05-18T07:58:52.740Z,47.15
2023-05-18T07:59:52.774Z,47.16
2023-05-18T08:00:52.808Z,47.22
2023-05-18T08:01:52.909Z,47.12
2023-05-18T08:02:53.144Z,47.16
2023-05-18T08:03:52.917Z,47.17
2023-05-18T08:04:52.884Z,47.08
2023-05-18T08:05:52.890Z,47.13
2023-05-18T08:06:52.934Z,47.14
2023-05-18T08:07:52.920Z,47.16
2023-05-18T08:08:52.985Z,47.17
2023-05-18T08:09:52.967Z,47.15
2023-05-18T08:10:52.997Z,47.08
2023-05-18T08:11:53.002Z,46.95
2023-05-18T08:12:52.979Z,46.91
2023-05-18T08:13:53.025Z,46.85
2023-05-18T08:14:53.031Z,46.76
2023-05-18T08:16:03.004Z,46.73
2023-05-18T08:16:54.056Z,46.63
2023-05-18T08:17:53.123Z,46.53
2023-05-18T08:18:53.196Z,46.43
2023-05-18T08:19:53.024Z,46.31
2023-05-18T08:20:53.033Z,46.24
2023-05-18T08:21:53.025Z,46.25
2023-05-18T08:22:53.032Z,46.28
2023-05-18T08:23:53.034Z,46.37
2023-05-18T08:24:53.073Z,46.43
2023-05-18T08:25:53.127Z,46.48
2023-05-18T08:26:53.132Z,46.49
2023-05-18T08:27:52.975Z,46.57
2023-05-18T08:28:53.039Z,46.66
2023-05-18T08:29:53.053Z,46.67
2023-05-18T08:30:53.044Z,46.72
2023-05-18T08:31:53.100Z,46.82
2023-05-18T08:32:53.109Z,46.87
2023-05-18T08:33:53.111Z,46.83
2023-05-18T08:34:53.130Z,46.95
2023-05-18T08:35:53.114Z,46.98
2023-05-18T08:36:53.121Z,46.99
2023-05-18T08:37:53.159Z,47.01
2023-05-18T08:38:53.104Z,47.05
2023-05-18T08:39:53.143Z,47.17
2023-05-18T08:40:53.145Z,47.12
2023-05-18T08:41:53.167Z,47.08
2023-05-18T08:42:53.222Z,47.04
2023-05-18T08:43:53.264Z,47.01
2023-05-18T08:44:53.336Z,46.98
2023-05-18T08:45:53.384Z,46.94
2023-05-18T08:46:53.460Z,46.93
2023-05-18T08:47:53.585Z,46.93
2023-05-18T08:48:53.739Z,46.91
2023-05-18T08:49:53.684Z,46.91
2023-05-18T08:50:53.737Z,46.89
2023-05-18T08:51:53.807Z,46.92
2023-05-18T08:52:53.907Z,46.91
2023-05-18T08:53:54.096Z,46.87
2023-05-18T08:54:54.000Z,46.90
2023-05-18T08:55:54.085Z,46.88
2023-05-18T08:56:54.250Z,46.87
2023-05-18T08:57:54.236Z,46.86
2023-05-18T08:58:54.293Z,46.86
2023-05-18T08:59:54.369Z,46.92
2023-05-18T09:00:54.441Z,46.94
2023-05-18T09:01:54.557Z,46.95
2023-05-18T09:02:54.589Z,46.91
2023-05-18T09:03:55.450Z,46.87
2023-05-18T09:04:54.783Z,46.85
2023-05-18T09:05:54.758Z,46.85
2023-05-18T09:06:54.804Z,46.76
2023-05-18T09:07:54.872Z,46.72
2023-05-18T09:08:54.941Z,46.64
2023-05-18T09:09:55.020Z,46.70
2023-05-18T09:10:55.067Z,46.70
2023-05-18T09:11:55.164Z,46.77
2023-05-18T09:12:55.245Z,46.84
2023-05-18T09:13:55.283Z,46.93
2023-05-18T09:14:55.375Z,46.95
2023-05-18T09:15:55.497Z,47.00
2023-05-18T09:16:55.484Z,46.98
2023-05-18T09:17:55.548Z,46.96
2023-05-18T09:18:55.657Z,46.98
2023-05-18T09:19:55.716Z,47.10
2023-05-18T09:20:55.755Z,47.10
2023-05-18T09:21:55.811Z,47.21
2023-05-18T09:22:55.899Z,47.21
2023-05-18T09:23:55.936Z,47.18
2023-05-18T09:24:56.047Z,47.16
2023-05-18T09:25:56.077Z,47.13
2023-05-18T09:26:56.175Z,47.10
2023-05-18T09:27:56.190Z,47.11
2023-05-18T09:28:56.284Z,47.10
2023-05-18T09:29:56.339Z,47.12
2023-05-18T09:30:56.394Z,47.10
2023-05-18T09:31:56.494Z,47.12
2023-05-18T09:32:56.638Z,47.15
2023-05-18T09:33:56.575Z,47.16
2023-05-18T09:34:56.693Z,47.14
2023-05-18T09:35:56.687Z,47.19
2023-05-18T09:36:56.784Z,47.19
2023-05-18T09:37:56.825Z,47.14
2023-05-18T09:38:56.851Z,47.12
2023-05-18T09:39:56.924Z,47.09
2023-05-18T09:40:56.970Z,47.07
2023-05-18T09:41:57.040Z,47.10
2023-05-18T09:42:57.114Z,47.14
2023-05-18T09:43:57.209Z,47.15
2023-05-18T09:44:57.253Z,47.14
2023-05-18T09:45:57.308Z,47.09
2023-05-18T09:46:57.386Z,47.11
2023-05-18T09:47:57.513Z,47.07
2023-05-18T09:48:57.509Z,47.06
2023-05-18T09:49:57.600Z,47.07
2023-05-18T09:50:57.631Z,47.10
2023-05-18T09:51:57.666Z,47.07
2023-05-18T09:52:57.721Z,46.96
2023-05-18T09:53:57.785Z,46.93
2023-05-18T09:54:58.304Z,46.95
2023-05-18T09:55:57.928Z,46.89
2023-05-18T09:57:09.700Z,46.83
2023-05-18T09:57:58.953Z,46.86
2023-05-18T09:58:57.968Z,46.90
2023-05-18T09:59:57.955Z,46.95
2023-05-18T10:00:57.998Z,46.97
2023-05-18T10:01:57.974Z,46.98
2023-05-18T10:02:58.035Z,46.99
2023-05-18T10:03:57.965Z,47.04
2023-05-18T10:04:57.956Z,47.09
2023-05-18T10:05:57.943Z,47.11
2023-05-18T10:06:58.001Z,47.12
2023-05-18T10:07:58.068Z,47.19
2023-05-18T10:08:58.139Z,47.25
2023-05-18T10:09:58.208Z,47.26
2023-05-18T10:10:58.252Z,47.35
2023-05-18T10:11:58.322Z,47.40
2023-05-18T10:12:58.420Z,47.42
2023-05-18T10:13:58.449Z,47.41
2023-05-18T10:14:58.521Z,47.43
2023-05-18T10:15:58.579Z,47.46
2023-05-18T10:17:14.392Z,47.46
2023-05-18T10:17:59.678Z,47.44
2023-05-18T10:18:58.729Z,47.38
2023-05-18T10:19:58.626Z,47.40
2023-05-18T10:21:00.043Z,47.41
2023-05-18T10:21:58.629Z,47.41
2023-05-18T10:22:58.622Z,47.37
2023-05-18T10:23:58.647Z,47.37
2023-05-18T10:24:58.610Z,47.42
2023-05-18T10:25:58.652Z,47.47
2023-05-18T10:26:58.664Z,47.48
2023-05-18T10:27:58.731Z,47.46
2023-05-18T10:28:58.805Z,47.46
2023-05-18T10:29:58.864Z,47.44
2023-05-18T10:30:58.973Z,47.43
2023-05-18T10:32:01.493Z,47.44
2023-05-18T10:32:59.011Z,47.39
2023-05-18T10:33:59.010Z,47.39
2023-05-18T10:34:59.009Z,47.33
2023-05-18T10:35:58.977Z,47.30
2023-05-18T10:36:58.994Z,47.20
2023-05-18T10:37:59.014Z,47.17
2023-05-18T10:38:59.001Z,47.12
2023-05-18T10:39:58.987Z,47.05
2023-05-18T10:40:59.074Z,46.96
2023-05-18T10:41:58.989Z,46.92
2023-05-18T10:42:58.994Z,46.95
2023-05-18T10:43:58.982Z,46.90
2023-05-18T10:44:59.013Z,46.92
2023-05-18T10:45:59.109Z,46.95
2023-05-18T10:46:59.109Z,46.94
2023-05-18T10:47:59.029Z,46.97
2023-05-18T10:48:59.003Z,47.02
2023-05-18T10:49:58.991Z,47.07
2023-05-18T10:50:59.015Z,47.06
2023-05-18T10:51:58.959Z,47.10
2023-05-18T10:52:58.998Z,47.11
2023-05-18T10:53:58.962Z,47.12
2023-05-18T10:54:58.954Z,47.12
2023-05-18T10:55:59.018Z,47.14
2023-05-18T10:56:58.999Z,47.12
2023-05-18T10:57:58.980Z,47.14
2023-05-18T10:58:59.038Z,47.18
2023-05-18T10:59:58.980Z,47.19
2023-05-18T11:00:59.013Z,47.26
2023-05-18T11:01:59.083Z,47.34
2023-05-18T11:02:59.122Z,47.35
2023-05-18T11:03:59.133Z,47.39
2023-05-18T11:04:59.217Z,47.39
2023-05-18T11:05:59.290Z,47.41
2023-05-18T11:06:59.324Z,47.37
2023-05-18T11:07:59.364Z,47.39
2023-05-18T11:08:59.445Z,47.38
2023-05-18T11:09:59.450Z,47.38
2023-05-18T11:11:01.317Z,47.36
2023-05-18T11:11:59.556Z,47.33
2023-05-18T11:12:59.603Z,47.33
2023-05-18T11:13:59.663Z,47.31
2023-05-18T11:14:59.697Z,47.30
2023-05-18T11:15:59.853Z,47.28
2023-05-18T11:16:59.805Z,47.24
2023-05-18T11:17:59.902Z,47.16
2023-05-18T11:18:59.938Z,47.08
2023-05-18T11:19:59.929Z,47.02
2023-05-18T11:20:59.978Z,46.93
2023-05-18T11:22:00.020Z,46.91
2023-05-18T11:23:00.048Z,46.81
2023-05-18T11:24:00.065Z,46.77
2023-05-18T11:25:00.188Z,46.78
2023-05-18T11:26:00.170Z,46.76
2023-05-18T11:27:25.003Z,46.78
2023-05-18T11:28:24.960Z,46.80
2023-05-18T11:29:24.943Z,46.84
2023-05-18T11:30:24.910Z,46.91
2023-05-18T11:31:24.862Z,46.94
2023-05-18T11:32:29.894Z,46.93
2023-05-18T11:33:25.867Z,46.96
2023-05-18T11:34:24.796Z,46.96
2023-05-18T11:35:24.789Z,46.98
2023-05-18T11:36:24.743Z,46.98
2023-05-18T11:37:24.721Z,46.96
2023-05-18T11:38:24.770Z,47.01
2023-05-18T11:39:24.666Z,46.97
2023-05-18T11:40:24.684Z,46.98
2023-05-18T11:41:24.660Z,46.98
2023-05-18T11:42:24.713Z,47.03
2023-05-18T11:43:24.732Z,47.02
2023-05-18T11:44:24.759Z,47.03
2023-05-18T11:45:24.848Z,47.03
2023-05-18T11:46:24.824Z,47.00
2023-05-18T11:47:24.976Z,47.01
2023-05-18T11:48:25.028Z,46.99
2023-05-18T11:49:25.105Z,46.97
2023-05-18T11:50:25.017Z,46.94
2023-05-18T11:51:25.069Z,46.91
2023-05-18T11:52:25.113Z,46.90
2023-05-18T11:53:25.143Z,46.89
2023-05-18T11:54:25.146Z,46.84
2023-05-18T11:55:25.198Z,46.84
2023-05-18T11:56:25.226Z,46.81
2023-05-18T11:57:25.262Z,46.76
2023-05-18T11:58:25.280Z,46.74
2023-05-18T11:59:25.335Z,46.73
2023-05-18T12:00:25.354Z,46.67
2023-05-18T12:01:25.418Z,46.66
2023-05-18T12:02:25.694Z,46.66
2023-05-18T12:03:25.573Z,46.63
2023-05-18T12:04:25.632Z,46.66
2023-05-18T12:05:25.561Z,46.70
2023-05-18T12:06:25.574Z,46.71
2023-05-18T12:07:25.611Z,46.72
2023-05-18T12:08:25.659Z,46.71
2023-05-18T12:09:25.641Z,46.77
2023-05-18T12:10:25.747Z,46.76
2023-05-18T12:11:25.704Z,46.80
2023-05-18T12:12:25.726Z,46.81
2023-05-18T12:13:25.768Z,46.85
2023-05-18T12:14:25.773Z,46.93
2023-05-18T12:15:25.850Z,46.95
2023-05-18T12:16:25.893Z,46.96
2023-05-18T12:17:25.917Z,46.96
2023-05-18T12:18:25.943Z,46.94
2023-05-18T12:19:26.013Z,46.91
2023-05-18T12:20:25.990Z,46.89
2023-05-18T12:21:26.010Z,46.91
2023-05-18T12:22:26.037Z,46.91
2023-05-18T12:23:26.100Z,46.93
2023-05-18T12:24:26.069Z,46.88
2023-05-18T12:25:26.096Z,46.89
2023-05-18T12:26:26.156Z,46.85
2023-05-18T12:27:26.169Z,46.83
2023-05-18T12:28:26.198Z,46.78
2023-05-18T12:29:26.194Z,46.79
2023-05-18T12:30:26.250Z,46.77
2023-05-18T12:31:26.329Z,46.69
2023-05-18T12:32:26.352Z,46.65
2023-05-18T12:33:26.336Z,46.60
2023-05-18T12:34:26.332Z,46.55
2023-05-18T12:35:26.375Z,46.51
2023-05-18T12:36:26.404Z,46.47
2023-05-18T12:37:37.931Z,46.48
2023-05-18T12:38:27.393Z,46.43
2023-05-18T12:39:28.601Z,46.41
2023-05-18T12:40:26.533Z,46.37
2023-05-18T12:41:26.583Z,46.36
2023-05-18T12:42:26.556Z,46.38
2023-05-18T12:43:26.641Z,46.39
2023-05-18T12:44:26.606Z,46.42
2023-05-18T12:45:26.674Z,46.46
2023-05-18T12:46:26.725Z,46.46
2023-05-18T12:47:26.669Z,46.50
2023-05-18T12:48:26.720Z,46.50
2023-05-18T12:49:26.728Z,46.53
2023-05-18T12:50:27.032Z,46.51
2023-05-18T12:51:26.733Z,46.52
2023-05-18T12:53:00.578Z,46.63
2023-05-18T12:54:00.597Z,46.61